createdAt,value
2022-10-04T00:00:41.385Z,11.80
2022-10-04T00:03:35.919Z,11.82
2022-10-04T00:06:04.978Z,11.85
2022-10-04T00:08:42.644Z,11.88
2022-10-04T00:11:19.617Z,11.88
2022-10-04T00:13:51.286Z,11.86
2022-10-04T00:16:33.059Z,11.86
2022-10-04T00:19:16.360Z,11.90
2022-10-04T00:21:56.373Z,11.93
2022-10-04T00:24:30.361Z,11.94
2022-10-04T00:27:20.867Z,11.93
2022-10-04T00:30:15.096Z,11.88
2022-10-04T00:32:42.871Z,11.83
2022-10-04T00:35:26.271Z,11.81
2022-10-04T00:38:08.879Z,11.84
2022-10-04T00:40:50.514Z,11.84
2022-10-04T00:43:30.168Z,11.80
2022-10-04T00:46:08.523Z,11.76
2022-10-04T00:48:38.586Z,11.70
2022-10-04T00:51:33.203Z,11.67
2022-10-04T00:54:06.706Z,11.70
2022-10-04T00:56:48.691Z,11.74
2022-10-04T00:59:36.721Z,11.82
2022-10-04T01:02:26.515Z,11.89
2022-10-04T01:05:00.769Z,11.93
2022-10-04T01:07:45.217Z,11.93
2022-10-04T01:10:22.592Z,11.87
2022-10-04T01:13:05.776Z,11.86
2022-10-04T01:15:51.957Z,11.87
2022-10-04T01:18:20.330Z,11.87
2022-10-04T01:20:49.965Z,11.86
2022-10-04T01:23:44.400Z,11.87
2022-10-04T01:26:32.465Z,11.86
2022-10-04T01:29:11.039Z,11.83
2022-10-04T01:31:42.869Z,11.80
2022-10-04T01:34:20.196Z,11.79
2022-10-04T01:36:51.472Z,11.77
2022-10-04T01:39:20.731Z,11.80
2022-10-04T01:42:05.322Z,11.78
2022-10-04T01:44:39.682Z,11.72
2022-10-04T01:47:36.447Z,11.67
2022-10-04T01:50:15.715Z,11.62
2022-10-04T01:53:12.031Z,11.61
2022-10-04T01:55:41.903Z,11.56
2022-10-04T01:58:15.057Z,11.58
2022-10-04T02:00:47.975Z,11.62
2022-10-04T02:03:20.289Z,11.62
2022-10-04T02:05:52.362Z,11.60
2022-10-04T02:08:25.967Z,11.59
2022-10-04T02:10:54.985Z,11.61
2022-10-04T02:13:24.358Z,11.61
2022-10-04T02:15:52.255Z,11.60
2022-10-04T02:18:21.389Z,11.62
2022-10-04T02:20:50.307Z,11.67
2022-10-04T02:23:22.914Z,11.70
2022-10-04T02:25:51.058Z,11.73
2022-10-04T02:28:18.969Z,11.77
2022-10-04T02:31:10.725Z,11.81
2022-10-04T02:33:40.695Z,11.79
2022-10-04T02:36:09.707Z,11.80
2022-10-04T02:39:00.805Z,11.80
2022-10-04T02:41:35.889Z,11.82
2022-10-04T02:44:17.905Z,11.87
2022-10-04T02:46:54.092Z,11.82
2022-10-04T02:49:24.918Z,11.79
2022-10-04T02:51:58.122Z,11.75
2022-10-04T02:54:45.141Z,11.74
2022-10-04T02:57:19.458Z,11.79
2022-10-04T02:59:47.800Z,11.84
2022-10-04T03:02:29.687Z,11.86
2022-10-04T03:05:06.162Z,11.80
2022-10-04T03:07:35.483Z,11.76
2022-10-04T03:10:07.235Z,11.77
2022-10-04T03:12:35.342Z,11.77
2022-10-04T03:15:03.695Z,11.76
2022-10-04T03:17:31.552Z,11.75
2022-10-04T03:20:00.127Z,11.75
2022-10-04T03:22:27.955Z,11.74
2022-10-04T03:24:57.113Z,11.79
2022-10-04T03:27:43.719Z,11.78
2022-10-04T03:30:15.089Z,11.75
2022-10-04T03:32:43.514Z,11.76
2022-10-04T03:35:28.468Z,11.76
2022-10-04T03:37:58.158Z,11.75
2022-10-04T03:40:30.122Z,11.75
2022-10-04T03:42:59.556Z,11.72
2022-10-04T03:45:28.434Z,11.74
2022-10-04T03:47:58.652Z,11.77
2022-10-04T03:50:29.038Z,11.77
2022-10-04T03:53:09.803Z,11.76
2022-10-04T03:55:40.615Z,11.69
2022-10-04T03:58:12.341Z,11.63
2022-10-04T04:00:43.993Z,11.59
2022-10-04T04:03:17.027Z,11.58
2022-10-04T04:05:52.937Z,11.58
2022-10-04T04:08:26.885Z,11.57
2022-10-04T04:10:56.516Z,11.52
2022-10-04T04:13:27.787Z,11.50
2022-10-04T04:15:56.887Z,11.50
2022-10-04T04:18:27.692Z,11.45
2022-10-04T04:20:59.222Z,11.41
2022-10-04T04:23:33.599Z,11.39
2022-10-04T04:26:35.554Z,11.37
2022-10-04T04:29:22.487Z,11.32
2022-10-04T04:31:55.163Z,11.32
2022-10-04T04:34:27.728Z,11.25
2022-10-04T04:37:00.746Z,11.17
2022-10-04T04:39:44.961Z,11.14
2022-10-04T04:42:19.164Z,11.12
2022-10-04T04:45:12.130Z,11.15
2022-10-04T04:47:51.302Z,11.20
2022-10-04T04:50:25.098Z,11.21
2022-10-04T04:53:05.172Z,11.16
2022-10-04T04:56:01.825Z,11.14
2022-10-04T04:58:27.914Z,11.12
2022-10-04T05:01:04.564Z,11.11
2022-10-04T05:03:34.238Z,11.13
2022-10-04T05:06:04.918Z,11.18
2022-10-04T05:08:38.760Z,11.17
2022-10-04T05:11:08.873Z,11.17
2022-10-04T05:13:52.008Z,11.17
2022-10-04T05:16:27.535Z,11.14
2022-10-04T05:19:08.917Z,11.15
2022-10-04T05:21:40.768Z,11.21
2022-10-04T05:24:18.196Z,11.25
2022-10-04T05:26:50.435Z,11.29
2022-10-04T05:29:19.162Z,11.38
2022-10-04T05:32:15.974Z,11.41
2022-10-04T05:34:47.143Z,11.41
2022-10-04T05:37:24.206Z,11.47
2022-10-04T05:40:14.075Z,11.55
2022-10-04T05:42:46.453Z,11.62
2022-10-04T05:45:14.258Z,11.65
2022-10-04T05:47:42.751Z,11.74
2022-10-04T05:50:41.668Z,11.85
2022-10-04T05:53:14.766Z,11.93
2022-10-04T05:56:23.954Z,11.96
2022-10-04T05:59:22.960Z,12.01
2022-10-04T06:01:59.807Z,12.05
2022-10-04T06:04:56.447Z,12.08
2022-10-04T06:07:37.744Z,12.09
2022-10-04T06:10:19.333Z,12.18
2022-10-04T06:12:55.524Z,12.32
2022-10-04T06:15:57.337Z,12.42
2022-10-04T06:18:49.976Z,12.53
2022-10-04T06:21:29.740Z,12.56
2022-10-04T06:24:11.717Z,12.65
2022-10-04T06:26:51.242Z,12.63
2022-10-04T06:29:38.962Z,12.58
2022-10-04T06:32:54.167Z,12.65
2022-10-04T06:36:24.570Z,12.66
2022-10-04T06:39:21.392Z,12.67
2022-10-04T06:42:15.204Z,12.74
2022-10-04T06:45:31.740Z,12.81
2022-10-04T06:48:38.798Z,12.84
2022-10-04T06:58:39.620Z,12.94
2022-10-04T07:01:27.349Z,13.15
2022-10-04T07:05:06.462Z,13.26
2022-10-04T07:08:11.267Z,13.45
2022-10-04T07:19:54.000Z,14.07
2022-10-04T07:26:41.613Z,14.35
2022-10-04T07:33:03.673Z,14.29
2022-10-04T07:35:48.625Z,14.23
2022-10-04T07:39:14.185Z,14.16
2022-10-04T07:43:00.998Z,14.12
2022-10-04T07:47:24.023Z,14.03
2022-10-04T08:44:15.666Z,15.25
2022-10-04T08:55:33.163Z,15.37
2022-10-04T09:00:59.952Z,15.36
2022-10-04T09:04:16.026Z,15.22
2022-10-04T09:08:31.410Z,15.72
2022-10-04T09:11:42.934Z,16.56
2022-10-04T09:14:57.577Z,17.17
2022-10-04T09:18:12.236Z,17.16
2022-10-04T09:22:20.215Z,16.83
2022-10-04T09:26:15.950Z,16.39
2022-10-04T09:29:34.951Z,16.80
2022-10-04T09:36:36.893Z,16.73
2022-10-04T09:40:05.603Z,16.60
2022-10-04T09:43:18.517Z,16.32
2022-10-04T09:51:21.159Z,15.88
2022-10-04T09:54:26.527Z,15.77
2022-10-04T09:57:53.613Z,16.04
2022-10-04T10:01:53.067Z,17.17
2022-10-04T10:06:10.109Z,17.79
2022-10-04T10:19:18.544Z,18.77
2022-10-04T10:22:57.468Z,18.77
2022-10-04T10:29:52.982Z,19.62
2022-10-04T10:33:06.472Z,19.99
2022-10-04T10:36:12.929Z,20.32
2022-10-04T10:39:19.938Z,20.66
2022-10-04T10:42:25.928Z,21.03
2022-10-04T10:45:35.003Z,20.70
2022-10-04T10:49:08.504Z,19.92
2022-10-04T11:06:02.065Z,18.86
2022-10-04T11:13:43.156Z,18.17
2022-10-04T11:16:01.512Z,17.95
2022-10-04T11:20:07.973Z,17.75
2022-10-04T11:24:29.964Z,17.51
2022-10-04T11:30:40.926Z,20.07
2022-10-04T11:42:32.294Z,17.55
2022-10-04T11:45:45.128Z,17.49
2022-10-04T11:48:38.250Z,17.51
2022-10-04T11:52:02.103Z,18.00
2022-10-04T11:55:42.505Z,18.68
2022-10-04T11:59:09.608Z,19.20
2022-10-04T12:01:39.527Z,18.74
2022-10-04T12:05:45.276Z,18.33
2022-10-04T12:12:46.974Z,19.16
2022-10-04T12:15:50.614Z,19.46
2022-10-04T12:20:11.230Z,19.72
2022-10-04T12:54:27.995Z,22.26
2022-10-04T12:57:24.499Z,22.32
2022-10-04T13:00:18.070Z,22.30
2022-10-04T13:03:08.215Z,22.02
2022-10-04T13:05:43.614Z,22.21
2022-10-04T13:12:08.945Z,22.17
2022-10-04T13:17:23.362Z,22.16
2022-10-04T13:21:52.368Z,22.95
2022-10-04T13:52:09.826Z,23.22
2022-10-04T14:01:28.549Z,24.80
2022-10-04T14:10:35.763Z,26.47
2022-10-04T14:13:49.565Z,26.88
2022-10-04T14:17:46.118Z,27.33
2022-10-04T14:21:19.377Z,28.18
2022-10-04T14:25:05.253Z,28.07
2022-10-04T14:51:59.766Z,28.68
2022-10-04T17:36:35.714Z,13.40
2022-10-04T18:04:14.811Z,12.45
2022-10-04T18:06:57.140Z,12.38
2022-10-04T18:10:03.062Z,12.35
2022-10-04T18:13:02.924Z,12.28
2022-10-04T18:16:16.601Z,12.27
2022-10-04T18:18:45.366Z,12.30
2022-10-04T18:21:17.758Z,12.28
2022-10-04T18:23:57.778Z,12.24
2022-10-04T18:26:32.256Z,12.19
2022-10-04T18:29:09.236Z,12.15
2022-10-04T18:31:38.472Z,12.07
2022-10-04T18:34:27.791Z,12.01
2022-10-04T18:37:27.880Z,11.95
2022-10-04T18:40:28.588Z,11.88
2022-10-04T18:43:30.282Z,11.79
2022-10-04T18:46:24.805Z,11.70
2022-10-04T18:49:24.711Z,11.62
2022-10-04T18:52:08.813Z,11.58
2022-10-04T18:54:59.797Z,11.57
2022-10-04T18:57:59.338Z,11.63
2022-10-04T19:00:56.354Z,11.67
2022-10-04T19:03:44.942Z,11.64
2022-10-04T19:06:33.701Z,11.58
2022-10-04T19:09:30.671Z,11.49
2022-10-04T19:12:11.068Z,11.43
2022-10-04T19:14:53.909Z,11.35
2022-10-04T19:17:56.634Z,11.31
2022-10-04T19:20:41.533Z,11.29
2022-10-04T19:23:27.732Z,11.23
2022-10-04T19:26:32.880Z,11.19
2022-10-04T19:29:25.901Z,11.16
2022-10-04T19:32:21.440Z,11.12
2022-10-04T19:35:31.015Z,11.10
2022-10-04T19:38:05.836Z,11.08
2022-10-04T19:41:14.672Z,11.05
2022-10-04T19:44:05.920Z,11.05
2022-10-04T19:46:34.593Z,11.06
2022-10-04T19:49:13.800Z,11.01
2022-10-04T19:51:50.367Z,10.95
2022-10-04T19:54:24.524Z,10.91
2022-10-04T19:56:54.593Z,10.89
2022-10-04T19:59:35.259Z,10.87
2022-10-04T20:02:02.618Z,10.84
2022-10-04T20:04:37.650Z,10.80
2022-10-04T20:07:22.219Z,10.75
2022-10-04T20:10:07.863Z,10.72
2022-10-04T20:12:44.542Z,10.75
2022-10-04T20:15:34.159Z,10.75
2022-10-04T20:18:02.567Z,10.72
2022-10-04T20:20:41.363Z,10.69
2022-10-04T20:23:09.615Z,10.64
2022-10-04T20:25:46.167Z,10.63
2022-10-04T20:28:28.475Z,10.63
2022-10-04T20:30:57.791Z,10.62
2022-10-04T20:33:34.425Z,10.60
2022-10-04T20:36:21.154Z,10.57
2022-10-04T20:38:54.311Z,10.56
2022-10-04T20:42:03.047Z,10.55
2022-10-04T20:45:10.405Z,10.47
2022-10-04T20:47:39.152Z,10.35
2022-10-04T20:50:14.504Z,10.26
2022-10-04T20:52:47.362Z,10.20
2022-10-04T20:55:20.143Z,10.15
2022-10-04T20:57:47.147Z,10.14
2022-10-04T21:00:22.802Z,10.16
2022-10-04T21:02:49.567Z,10.17
2022-10-04T21:05:26.602Z,10.13
2022-10-04T21:08:13.598Z,10.10
2022-10-04T21:11:01.642Z,10.03
2022-10-04T21:13:51.651Z,10.00
2022-10-04T21:16:39.449Z,9.95
2022-10-04T21:19:31.653Z,9.96
2022-10-04T21:22:06.018Z,10.03
2022-10-04T21:24:40.562Z,10.08
2022-10-04T21:27:10.356Z,10.12
2022-10-04T21:29:38.417Z,10.12
2022-10-04T21:32:05.514Z,10.15
2022-10-04T21:34:52.608Z,10.17
2022-10-04T21:37:20.619Z,10.19
2022-10-04T21:39:47.954Z,10.08
2022-10-04T21:42:14.815Z,10.04
2022-10-04T21:44:42.079Z,10.03
2022-10-04T21:47:09.912Z,10.01
2022-10-04T21:49:36.939Z,9.98
2022-10-04T21:52:03.995Z,9.95
2022-10-04T21:54:31.126Z,9.95
2022-10-04T21:56:57.691Z,9.93
2022-10-04T21:59:25.609Z,9.89
2022-10-04T22:01:53.288Z,9.83
2022-10-04T22:04:19.830Z,9.72
2022-10-04T22:06:46.649Z,9.67
2022-10-04T22:09:14.474Z,9.68
2022-10-04T22:11:41.450Z,9.68
2022-10-04T22:14:08.014Z,9.65
2022-10-04T22:16:38.356Z,9.65
2022-10-04T22:19:05.035Z,9.59
2022-10-04T22:21:34.425Z,9.53
2022-10-04T22:24:17.100Z,9.53
2022-10-04T22:26:45.555Z,9.56
2022-10-04T22:29:14.744Z,9.53
2022-10-04T22:31:44.890Z,9.52
2022-10-04T22:34:19.251Z,9.55
2022-10-04T22:36:47.467Z,9.51
2022-10-04T22:39:16.587Z,9.50
2022-10-04T22:41:45.575Z,9.52
2022-10-04T22:44:21.477Z,9.54
2022-10-04T22:46:55.553Z,9.54
2022-10-04T22:49:29.552Z,9.58
2022-10-04T22:51:58.861Z,9.61
2022-10-04T22:54:31.069Z,9.59
2022-10-04T22:56:58.793Z,9.60
2022-10-04T22:59:37.863Z,9.61
2022-10-04T23:02:31.014Z,9.59
2022-10-04T23:05:01.265Z,9.54
2022-10-04T23:07:28.491Z,9.49
2022-10-04T23:09:55.349Z,9.44
2022-10-04T23:12:22.708Z,9.38
2022-10-04T23:14:49.312Z,9.35
2022-10-04T23:17:29.544Z,9.36
2022-10-04T23:20:11.976Z,9.38
2022-10-04T23:22:49.122Z,9.38
2022-10-04T23:25:22.284Z,9.42
2022-10-04T23:27:49.883Z,9.47
2022-10-04T23:30:20.626Z,9.50
2022-10-04T23:32:49.998Z,9.51
2022-10-04T23:35:23.397Z,9.49
2022-10-04T23:37:51.245Z,9.48
2022-10-04T23:40:23.292Z,9.48
2022-10-04T23:42:54.686Z,9.46
2022-10-04T23:45:23.273Z,9.40
2022-10-04T23:47:53.047Z,9.39
2022-10-04T23:50:34.456Z,9.40
2022-10-04T23:53:04.219Z,9.39
2022-10-04T23:55:34.514Z,9.35
2022-10-04T23:58:01.621Z,9.33
